Yamagata Airport, Japan

8:41 AM JST on September 02, 2014 (GMT +0900)
Sendai | Change Station
CLOSE
Current Station
Airport
Location: Sendai Airport,
Elevation: 16 ft
Nearby Weather Stations

Elev 16 ft 38.14 °N, 140.92 °E | Updated 1 hour ago

Mostly Cloudy
Mostly Cloudy
70 °F
Feels Like 70 °F
N
4
Wind Variable Wind from NW

Today
High -- | Low -- °F
--% Chance of Precip.
Yesterday
High -- | Low -- °F
Precip. -- in
5:08 AM 6:07 PM
Waxing Crescent, 45% visible
Pressure 29.95 in
Visibility 6.2 miles
Clouds Few 600 ft
Scattered Clouds 4000 ft
Mostly Cloudy 9000 ft
Dew Point 68 °F
Humidity 94%
Rainfall 0.00 in
Snow Depth Not available.
UV 1 out of 12
Pollen Not available.
Air Quality Not available.
Flu Activity Not available.
METAR RJSS 012200Z 31003KT 9999 FEW006 SCT040 BKN090 21/20 Q1014

More Conditions Fewer Conditions

Pressure 29.95 in
Visibility 6.2 miles
Clouds Few 600 ft
Scattered Clouds 4000 ft
Mostly Cloudy 9000 ft
Dew Point 68 °F
Humidity 94%
Rainfall 0.00 in
Snow Depth Not available.
UV 1 out of 12
Pollen Not available.
Air Quality Not available.
Flu Activity Not available.
METAR RJSS 012200Z 31003KT 9999 FEW006 SCT040 BKN090 21/20 Q1014

More Conditions Fewer Conditions

10-Day Weather Forecast

Almanac

Astronomy

Sep. 02, 2014 Rise Set
Actual Time 5:08 AM JST 6:07 PM JST
Civil Twilight 4:41 AM JST 6:34 PM JST
Nautical Twilight 4:08 AM JST 7:06 PM JST
Astronomical Twilight 3:35 AM JST 7:40 PM JST
Moon 12:09 PM JST (9/2) 10:32 PM JST (9/2)
Length of Visible Light 13h 53m
Length of Day
12h 59m
Tomorrow will be 2m 24s shorter.
Waxing Crescent, 45% of the Moon is Illuminated
Sep 1
Waxing Crescent
Sep 2
First Quarter
Sep 8
Full
Sep 15
Last Quarter
Sep 24
New

Yesterday's Extremes

Country Highs Country Lows

Community

WunderPhotos

Upload Photos

1,749,440 photos uploaded!

Nearby

Snow Depth

Not available.

Earthquake Activity

City Distance Mag. Time & Date
No recent earthquake activity has been reported nearby.
Minimum magnitude displayed is 2.5.

Coastal Water Temperatures

Place Temperature
No Stations Reporting

Nearby Weather Stations